createdAt,value
2022-12-23T00:01:30.669Z,7.40
2022-12-23T00:03:59.200Z,7.40
2022-12-23T00:06:26.548Z,7.40
2022-12-23T00:08:58.676Z,7.40
2022-12-23T00:11:28.483Z,7.40
2022-12-23T00:14:20.622Z,7.40
2022-12-23T00:16:48.591Z,7.40
2022-12-23T00:19:15.544Z,7.30
2022-12-23T00:21:42.488Z,7.30
2022-12-23T00:24:09.273Z,7.30
2022-12-23T00:26:36.093Z,7.30
2022-12-23T00:29:02.897Z,7.40
2022-12-23T00:31:29.868Z,7.40
2022-12-23T00:33:56.694Z,7.40
2022-12-23T00:36:28.814Z,7.30
2022-12-23T00:39:15.785Z,7.40
2022-12-23T00:42:01.237Z,7.40
2022-12-23T00:44:28.447Z,7.40
2022-12-23T00:46:55.504Z,7.40
2022-12-23T00:49:40.942Z,7.50
2022-12-23T00:52:10.532Z,7.50
2022-12-23T00:54:37.636Z,7.60
2022-12-23T00:57:04.883Z,7.70
2022-12-23T00:59:31.702Z,7.80
2022-12-23T01:02:17.412Z,7.80
2022-12-23T01:05:03.103Z,7.80
2022-12-23T01:07:30.037Z,7.90
2022-12-23T01:09:56.864Z,7.90
2022-12-23T01:12:23.678Z,8.00
2022-12-23T01:14:50.482Z,8.00
2022-12-23T01:17:18.645Z,8.00
2022-12-23T01:19:45.476Z,8.10
2022-12-23T01:22:12.283Z,8.10
2022-12-23T01:24:39.122Z,8.10
2022-12-23T01:27:05.958Z,8.10
2022-12-23T01:29:32.796Z,8.10
2022-12-23T01:31:59.801Z,8.20
2022-12-23T01:34:32.584Z,8.20
2022-12-23T01:37:03.200Z,8.20
2022-12-23T01:39:29.990Z,8.20
2022-12-23T01:42:15.415Z,8.30
2022-12-23T01:45:06.318Z,8.20
2022-12-23T01:47:40.267Z,8.30
2022-12-23T01:50:16.394Z,8.30
2022-12-23T01:52:49.657Z,8.40
2022-12-23T01:55:21.123Z,8.40
2022-12-23T01:57:48.806Z,8.40
2022-12-23T02:00:34.347Z,8.40
2022-12-23T02:03:19.598Z,8.50
2022-12-23T02:05:47.218Z,8.40
2022-12-23T02:08:34.507Z,8.40
2022-12-23T02:11:15.391Z,8.50
2022-12-23T02:14:10.813Z,8.50
2022-12-23T02:16:48.986Z,8.60
2022-12-23T02:19:41.012Z,8.60
2022-12-23T02:22:32.064Z,8.50
2022-12-23T02:25:28.113Z,8.60
2022-12-23T02:28:20.879Z,8.50
2022-12-23T02:30:59.411Z,8.60
2022-12-23T02:33:29.336Z,8.60
2022-12-23T02:36:10.363Z,8.60
2022-12-23T02:38:59.565Z,8.60
2022-12-23T02:41:34.493Z,8.50
2022-12-23T02:44:17.249Z,8.60
2022-12-23T02:46:51.155Z,8.50
2022-12-23T02:49:25.544Z,8.60
2022-12-23T02:51:56.092Z,8.60
2022-12-23T02:54:38.747Z,8.60
2022-12-23T02:57:07.778Z,8.60
2022-12-23T02:59:41.157Z,8.60
2022-12-23T03:02:08.053Z,8.70
2022-12-23T03:04:34.959Z,8.70
2022-12-23T03:07:07.345Z,8.70
2022-12-23T03:10:11.361Z,8.70
2022-12-23T03:12:57.947Z,8.80
2022-12-23T03:16:06.276Z,8.70
2022-12-23T03:18:58.935Z,8.70
2022-12-23T03:22:00.369Z,8.70
2022-12-23T03:24:54.878Z,8.80
2022-12-23T03:27:35.872Z,8.80
2022-12-23T03:30:09.988Z,8.90
2022-12-23T03:32:49.416Z,8.90
2022-12-23T03:35:18.576Z,8.80
2022-12-23T03:37:49.519Z,8.90
2022-12-23T03:40:16.492Z,8.90
2022-12-23T03:42:47.779Z,8.90
2022-12-23T03:45:38.141Z,8.90
2022-12-23T03:48:15.398Z,8.90
2022-12-23T03:50:44.300Z,8.90
2022-12-23T03:53:16.849Z,8.90
2022-12-23T03:55:50.670Z,8.90
2022-12-23T03:58:32.466Z,8.90
2022-12-23T04:01:14.421Z,8.90
2022-12-23T04:03:47.369Z,8.90
2022-12-23T04:06:16.698Z,9.00
2022-12-23T04:08:46.315Z,9.00
2022-12-23T04:11:13.561Z,9.00
2022-12-23T04:13:40.815Z,9.00
2022-12-23T04:16:08.181Z,9.00
2022-12-23T04:18:34.988Z,9.00
2022-12-23T04:21:01.792Z,9.00
2022-12-23T04:23:28.640Z,9.00
2022-12-23T04:25:55.721Z,9.00
2022-12-23T04:28:22.621Z,9.00
2022-12-23T04:30:49.438Z,9.10
2022-12-23T04:33:16.277Z,9.10
2022-12-23T04:35:43.169Z,9.00
2022-12-23T04:38:10.366Z,9.10
2022-12-23T04:40:37.225Z,9.10
2022-12-23T04:43:04.035Z,9.10
2022-12-23T04:45:32.359Z,9.20
2022-12-23T04:47:59.206Z,9.20
2022-12-23T04:50:26.019Z,9.20
2022-12-23T04:52:52.844Z,9.10
2022-12-23T04:55:19.782Z,9.20
2022-12-23T04:57:46.597Z,9.20
2022-12-23T05:00:14.168Z,9.20
2022-12-23T05:02:41.189Z,9.20
2022-12-23T05:05:08.947Z,9.20
2022-12-23T05:07:35.823Z,9.20
2022-12-23T05:10:02.698Z,9.20
2022-12-23T05:12:30.969Z,9.20
2022-12-23T05:14:57.857Z,9.20
2022-12-23T05:17:24.616Z,9.20
2022-12-23T05:19:51.574Z,9.20
2022-12-23T05:22:18.412Z,9.20
2022-12-23T05:24:45.198Z,9.20
2022-12-23T05:27:12.101Z,9.30
2022-12-23T05:29:38.860Z,9.30
2022-12-23T05:32:05.932Z,9.30
2022-12-23T05:34:32.721Z,9.30
2022-12-23T05:36:59.515Z,9.30
2022-12-23T05:39:26.285Z,9.40
2022-12-23T05:41:53.089Z,9.40
2022-12-23T05:44:19.854Z,9.40
2022-12-23T05:46:46.679Z,9.40
2022-12-23T05:49:13.580Z,9.40
2022-12-23T05:51:40.375Z,9.40
2022-12-23T05:54:07.176Z,9.40
2022-12-23T05:56:33.983Z,9.40
2022-12-23T05:59:00.751Z,9.40
2022-12-23T06:01:27.662Z,9.40
2022-12-23T06:03:54.586Z,9.40
2022-12-23T06:06:21.515Z,9.40
2022-12-23T06:08:48.321Z,9.30
2022-12-23T06:11:15.184Z,9.30
2022-12-23T06:13:41.993Z,9.30
2022-12-23T06:16:08.870Z,9.30
2022-12-23T06:18:35.674Z,9.30
2022-12-23T06:21:02.541Z,9.30
2022-12-23T06:23:29.820Z,9.30
2022-12-23T06:26:01.476Z,9.30
2022-12-23T06:28:29.309Z,9.30
2022-12-23T06:30:57.508Z,9.30
2022-12-23T06:33:24.868Z,9.30
2022-12-23T06:35:51.793Z,9.30
2022-12-23T06:38:18.590Z,9.30
2022-12-23T06:40:45.426Z,9.20
2022-12-23T06:43:13.485Z,9.20
2022-12-23T06:45:40.841Z,9.20
2022-12-23T06:48:07.736Z,9.20
2022-12-23T06:50:34.657Z,9.20
2022-12-23T06:53:01.437Z,9.20
2022-12-23T06:55:28.234Z,9.20
2022-12-23T06:57:55.049Z,9.20
2022-12-23T07:00:21.911Z,9.20
2022-12-23T07:02:49.109Z,9.30
2022-12-23T07:05:17.057Z,9.20
2022-12-23T07:07:43.799Z,9.30
2022-12-23T07:10:10.754Z,9.30
2022-12-23T07:12:37.978Z,9.40
2022-12-23T07:15:06.714Z,9.40
2022-12-23T07:17:33.625Z,9.40
2022-12-23T07:20:00.711Z,9.40
2022-12-23T07:22:27.506Z,9.40
2022-12-23T07:24:54.291Z,9.40
2022-12-23T07:27:21.089Z,9.40
2022-12-23T07:29:50.430Z,9.40
2022-12-23T07:32:17.263Z,9.40
2022-12-23T07:34:44.015Z,9.50
2022-12-23T07:37:10.974Z,9.50
2022-12-23T07:39:38.492Z,9.50
2022-12-23T07:44:52.158Z,9.60
2022-12-23T07:47:18.946Z,9.60
2022-12-23T07:49:45.748Z,9.60
2022-12-23T07:52:12.515Z,9.60
2022-12-23T07:54:39.278Z,9.70
2022-12-23T07:57:06.051Z,9.70
2022-12-23T07:59:32.822Z,9.70
2022-12-23T08:01:59.742Z,9.70
2022-12-23T08:04:26.560Z,9.70
2022-12-23T08:06:53.422Z,9.70
2022-12-23T08:09:20.223Z,9.70
2022-12-23T08:11:46.990Z,9.80
2022-12-23T08:14:13.738Z,9.80
2022-12-23T08:16:44.043Z,9.80
2022-12-23T08:19:11.095Z,9.80
2022-12-23T08:21:37.916Z,9.80
2022-12-23T08:24:04.908Z,9.80
2022-12-23T08:26:33.091Z,9.80
2022-12-23T08:29:00.743Z,9.80
2022-12-23T08:31:32.052Z,9.80
2022-12-23T08:34:00.533Z,9.80
2022-12-23T08:36:36.922Z,9.80
2022-12-23T08:39:07.464Z,9.80
2022-12-23T08:41:38.167Z,9.80
2022-12-23T08:44:05.109Z,9.80
2022-12-23T08:46:32.684Z,9.90
2022-12-23T08:48:59.554Z,9.90
2022-12-23T08:51:27.433Z,9.90
2022-12-23T08:54:00.480Z,10.00
2022-12-23T08:56:38.966Z,10.00
2022-12-23T08:59:06.315Z,10.00
2022-12-23T09:01:34.789Z,10.10
2022-12-23T09:04:06.100Z,10.10
2022-12-23T09:06:36.491Z,10.10
2022-12-23T09:09:04.389Z,10.20
2022-12-23T09:11:31.221Z,10.20
2022-12-23T09:14:00.657Z,10.20
2022-12-23T09:16:28.750Z,10.20
2022-12-23T09:18:56.287Z,10.30
2022-12-23T09:21:24.564Z,10.30
2022-12-23T09:23:52.246Z,10.30
2022-12-23T09:26:25.239Z,10.30
2022-12-23T09:28:52.695Z,10.30
2022-12-23T09:31:20.260Z,10.30
2022-12-23T09:33:49.112Z,10.30
2022-12-23T09:36:16.364Z,10.20
2022-12-23T09:38:43.140Z,10.20
2022-12-23T09:41:22.471Z,10.20
2022-12-23T09:44:19.098Z,10.30
2022-12-23T09:46:51.271Z,10.30
2022-12-23T09:49:18.984Z,10.30
2022-12-23T09:51:48.660Z,10.30
2022-12-23T09:54:21.127Z,10.30
2022-12-23T09:57:23.023Z,10.40
2022-12-23T10:00:14.166Z,10.40
2022-12-23T10:02:47.827Z,10.40
2022-12-23T10:05:15.856Z,10.50
2022-12-23T10:07:49.384Z,10.50
2022-12-23T10:10:42.906Z,10.50
2022-12-23T10:13:24.056Z,10.50
2022-12-23T10:15:52.104Z,10.50
2022-12-23T10:18:41.508Z,10.50
2022-12-23T10:21:16.449Z,10.50
2022-12-23T10:23:49.291Z,10.50
2022-12-23T10:26:41.601Z,10.40
2022-12-23T10:29:20.688Z,10.40
2022-12-23T10:31:50.371Z,10.40
2022-12-23T10:34:33.437Z,10.40
2022-12-23T10:37:20.397Z,10.50
2022-12-23T10:40:09.288Z,10.40
2022-12-23T10:43:14.056Z,10.40
2022-12-23T10:46:10.072Z,10.30
2022-12-23T10:48:55.491Z,10.40
2022-12-23T10:51:46.859Z,10.40
2022-12-23T10:54:35.394Z,10.40
2022-12-23T10:57:03.819Z,10.50
2022-12-23T10:59:35.619Z,10.50
2022-12-23T11:02:12.524Z,10.60
2022-12-23T11:04:47.776Z,10.70
2022-12-23T11:07:44.232Z,10.80
2022-12-23T11:10:25.799Z,10.80
2022-12-23T11:12:54.238Z,10.80
2022-12-23T11:15:38.824Z,10.80
2022-12-23T11:18:11.803Z,10.90
2022-12-23T11:20:44.172Z,10.90
2022-12-23T11:23:25.843Z,10.80
2022-12-23T11:26:07.921Z,10.90
2022-12-23T11:31:11.784Z,10.90
2022-12-23T11:33:45.500Z,10.90
2022-12-23T11:36:23.994Z,10.90
2022-12-23T11:39:06.404Z,10.90
2022-12-23T11:41:45.267Z,10.90
2022-12-23T11:44:21.753Z,10.90
2022-12-23T11:46:49.155Z,11.00
2022-12-23T11:49:16.039Z,11.00
2022-12-23T11:51:58.858Z,11.00
2022-12-23T11:54:25.693Z,11.00
2022-12-23T11:56:53.603Z,10.90
2022-12-23T11:59:42.741Z,10.90
2022-12-23T12:02:30.839Z,10.90
2022-12-23T12:05:22.666Z,10.90
2022-12-23T12:07:51.255Z,10.90
2022-12-23T12:10:31.568Z,10.90
2022-12-23T12:13:22.466Z,10.90
2022-12-23T12:16:09.835Z,10.90
2022-12-23T12:18:39.709Z,10.90
2022-12-23T12:21:17.306Z,10.90
2022-12-23T12:24:08.359Z,11.00
2022-12-23T12:26:40.894Z,11.00
2022-12-23T12:29:52.814Z,11.00
2022-12-23T12:32:30.883Z,11.00
2022-12-23T12:35:19.648Z,11.00
2022-12-23T12:37:59.807Z,11.00
2022-12-23T12:40:34.197Z,11.00
2022-12-23T12:43:24.244Z,10.90
2022-12-23T12:46:13.846Z,10.90
2022-12-23T12:48:59.778Z,10.80
2022-12-23T12:51:33.884Z,10.80
2022-12-23T12:54:19.421Z,10.80
2022-12-23T12:56:55.117Z,10.70
2022-12-23T12:59:27.518Z,10.70
2022-12-23T13:02:03.747Z,10.70
2022-12-23T13:05:04.368Z,10.70
2022-12-23T13:08:17.518Z,10.60
2022-12-23T13:10:56.317Z,10.60
2022-12-23T13:13:46.962Z,10.60
2022-12-23T13:16:25.730Z,10.50
2022-12-23T13:19:38.805Z,10.50
2022-12-23T13:22:13.843Z,10.50
2022-12-23T13:25:00.736Z,10.50
2022-12-23T13:27:33.974Z,10.50
2022-12-23T13:30:00.784Z,10.40
2022-12-23T13:32:49.657Z,10.50
2022-12-23T13:35:40.008Z,10.50
2022-12-23T13:38:28.265Z,10.40
2022-12-23T13:41:01.038Z,10.50
2022-12-23T13:43:38.811Z,10.40
2022-12-23T13:46:15.328Z,10.40
2022-12-23T13:49:07.943Z,10.40
2022-12-23T13:52:01.847Z,10.40
2022-12-23T13:55:01.826Z,10.40
2022-12-23T13:57:41.634Z,10.40
2022-12-23T14:00:17.673Z,10.40
2022-12-23T14:03:02.847Z,10.30
2022-12-23T14:05:31.624Z,10.40
2022-12-23T14:08:01.336Z,10.40
2022-12-23T14:10:30.142Z,10.40
2022-12-23T14:13:08.757Z,10.40
2022-12-23T14:15:51.479Z,10.40
2022-12-23T14:18:37.713Z,10.40
2022-12-23T14:21:04.493Z,10.40
2022-12-23T14:24:08.935Z,10.30
2022-12-23T14:26:47.644Z,10.30
2022-12-23T14:29:34.518Z,10.30
2022-12-23T14:32:01.765Z,10.20
2022-12-23T14:34:32.275Z,10.20
2022-12-23T14:37:20.934Z,10.20
2022-12-23T14:39:48.830Z,10.20
2022-12-23T14:42:40.056Z,10.10
2022-12-23T14:45:36.033Z,10.20
2022-12-23T14:48:34.813Z,10.20
2022-12-23T14:51:10.087Z,10.20
2022-12-23T14:53:52.460Z,10.20
2022-12-23T14:56:19.314Z,10.30
2022-12-23T14:58:46.072Z,10.30
2022-12-23T15:01:17.379Z,10.30
2022-12-23T15:03:52.172Z,10.30
2022-12-23T15:06:47.873Z,10.30
2022-12-23T15:09:26.240Z,10.40
2022-12-23T15:11:58.369Z,10.40
2022-12-23T15:14:30.307Z,10.40
2022-12-23T15:16:57.282Z,10.40
2022-12-23T15:19:27.149Z,10.50
2022-12-23T15:22:21.150Z,10.50
2022-12-23T15:24:50.747Z,10.40
2022-12-23T15:27:28.730Z,10.50
2022-12-23T15:29:57.662Z,10.60
2022-12-23T15:32:25.444Z,10.60
2022-12-23T15:34:55.782Z,10.60
2022-12-23T15:37:30.502Z,10.60
2022-12-23T15:40:06.177Z,10.60
2022-12-23T15:42:38.441Z,10.70
2022-12-23T15:45:26.647Z,10.70
2022-12-23T15:47:53.526Z,10.70
2022-12-23T15:50:20.511Z,10.60
2022-12-23T15:52:50.335Z,10.70
2022-12-23T15:55:25.008Z,10.70
2022-12-23T15:57:52.717Z,10.70
2022-12-23T16:00:20.723Z,10.80
2022-12-23T16:03:00.432Z,10.80
2022-12-23T16:05:30.688Z,10.80
2022-12-23T16:08:11.856Z,10.80
2022-12-23T16:10:39.455Z,10.90
2022-12-23T16:13:18.608Z,10.90
2022-12-23T16:15:46.176Z,10.90
2022-12-23T16:18:18.840Z,10.90
2022-12-23T16:21:01.823Z,10.90
2022-12-23T16:23:31.080Z,10.90
2022-12-23T16:25:59.927Z,11.00
2022-12-23T16:28:33.364Z,11.00
2022-12-23T16:31:00.309Z,11.00
2022-12-23T16:33:42.038Z,11.00
2022-12-23T16:36:15.043Z,11.00
2022-12-23T16:38:42.184Z,11.10
2022-12-23T16:41:09.041Z,11.10
2022-12-23T16:43:35.936Z,11.10
2022-12-23T16:46:03.322Z,11.10
2022-12-23T16:48:41.436Z,11.10
2022-12-23T16:51:13.015Z,11.10
2022-12-23T16:53:40.319Z,11.00
2022-12-23T16:56:16.457Z,11.00
2022-12-23T16:58:43.956Z,11.00
2022-12-23T17:01:15.484Z,11.10
2022-12-23T17:03:42.269Z,11.10
2022-12-23T17:06:18.898Z,11.10
2022-12-23T17:08:45.870Z,11.10
2022-12-23T17:11:18.718Z,11.10
2022-12-23T17:13:45.651Z,11.10
2022-12-23T17:16:21.589Z,11.00
2022-12-23T17:18:49.898Z,11.10
2022-12-23T17:21:28.513Z,11.10
2022-12-23T17:24:19.245Z,11.10
2022-12-23T17:26:46.050Z,11.00
2022-12-23T17:31:42.554Z,11.00
2022-12-23T17:34:21.122Z,11.00
2022-12-23T17:36:50.828Z,10.90
2022-12-23T17:39:18.853Z,10.90
2022-12-23T17:41:45.960Z,10.90
2022-12-23T17:44:15.200Z,10.90
2022-12-23T17:46:42.233Z,10.90
2022-12-23T17:49:09.228Z,10.90
2022-12-23T17:51:36.457Z,10.80
2022-12-23T17:54:04.625Z,10.90
2022-12-23T17:56:31.937Z,10.90
2022-12-23T17:58:58.849Z,10.90
2022-12-23T18:01:29.917Z,10.90
2022-12-23T18:03:58.273Z,11.00
2022-12-23T18:06:26.734Z,10.90
2022-12-23T18:08:53.704Z,10.90
2022-12-23T18:11:45.338Z,11.00
2022-12-23T18:14:19.780Z,11.00
2022-12-23T18:16:46.686Z,10.90
2022-12-23T18:19:18.079Z,10.90
2022-12-23T18:21:45.277Z,11.00
2022-12-23T18:24:12.107Z,11.00
2022-12-23T18:26:38.878Z,11.00
2022-12-23T18:29:05.641Z,11.00
2022-12-23T18:31:32.778Z,11.00
2022-12-23T18:34:00.154Z,11.00
2022-12-23T18:36:30.468Z,11.00
2022-12-23T18:38:58.001Z,11.00
2022-12-23T18:41:25.667Z,11.10
2022-12-23T18:43:53.367Z,11.00
2022-12-23T18:46:20.858Z,11.00
2022-12-23T18:48:48.198Z,11.00
2022-12-23T18:51:16.303Z,11.00
2022-12-23T18:53:43.678Z,11.10
2022-12-23T18:56:17.215Z,11.10
2022-12-23T18:58:43.965Z,11.10
2022-12-23T19:01:12.748Z,11.10
2022-12-23T19:03:39.680Z,11.10
2022-12-23T19:06:08.001Z,11.10
2022-12-23T19:08:35.697Z,11.10
2022-12-23T19:11:08.646Z,11.20
2022-12-23T19:13:35.379Z,11.20
2022-12-23T19:16:02.359Z,11.10
2022-12-23T19:18:29.162Z,11.20
2022-12-23T19:20:56.011Z,11.10
2022-12-23T19:23:22.796Z,11.20
2022-12-23T19:25:55.318Z,11.10
2022-12-23T19:28:24.063Z,11.10
2022-12-23T19:30:50.922Z,11.20
2022-12-23T19:33:17.747Z,11.20
2022-12-23T19:35:44.954Z,11.10
2022-12-23T19:40:40.230Z,11.20
2022-12-23T19:43:07.169Z,11.20
2022-12-23T19:45:33.981Z,11.20
2022-12-23T19:48:00.813Z,11.20
2022-12-23T19:50:27.621Z,11.20
2022-12-23T19:52:56.469Z,11.20
2022-12-23T19:55:23.604Z,11.20
2022-12-23T19:57:50.575Z,11.20
2022-12-23T20:00:17.466Z,11.20
2022-12-23T20:02:44.323Z,11.30
2022-12-23T20:05:11.089Z,11.20
2022-12-23T20:07:38.179Z,11.20
2022-12-23T20:10:06.310Z,11.30
2022-12-23T20:12:33.187Z,11.30
2022-12-23T20:15:00.100Z,11.30
2022-12-23T20:17:26.987Z,11.20
2022-12-23T20:19:53.874Z,11.20
2022-12-23T20:22:20.690Z,11.20
2022-12-23T20:24:47.472Z,11.10
2022-12-23T20:27:16.100Z,11.10
2022-12-23T20:29:43.461Z,11.10
2022-12-23T20:32:10.621Z,11.00
2022-12-23T20:34:40.010Z,11.00
2022-12-23T20:37:07.832Z,10.90
2022-12-23T20:39:34.839Z,10.90
2022-12-23T20:42:01.659Z,10.90
2022-12-23T20:44:37.304Z,10.80
2022-12-23T20:47:07.552Z,10.70
2022-12-23T20:49:34.481Z,10.70
2022-12-23T20:52:01.675Z,10.50
2022-12-23T20:54:33.267Z,10.40
2022-12-23T20:57:01.524Z,10.30
2022-12-23T20:59:28.401Z,10.20
2022-12-23T21:01:55.414Z,10.10
2022-12-23T21:04:22.756Z,10.10
2022-12-23T21:06:50.034Z,10.10
2022-12-23T21:09:17.404Z,10.00
2022-12-23T21:11:46.257Z,10.00
2022-12-23T21:14:14.512Z,9.90
2022-12-23T21:16:42.389Z,10.00
2022-12-23T21:19:17.680Z,9.90
2022-12-23T21:21:44.830Z,9.90
2022-12-23T21:24:12.160Z,9.90
2022-12-23T21:26:39.077Z,9.90
2022-12-23T21:29:07.383Z,9.90
2022-12-23T21:31:36.827Z,9.80
2022-12-23T21:34:04.333Z,9.80
2022-12-23T21:36:34.277Z,9.90
2022-12-23T21:39:01.184Z,9.90
2022-12-23T21:41:31.875Z,10.00
2022-12-23T21:44:00.146Z,9.90
2022-12-23T21:46:28.650Z,10.00
2022-12-23T21:48:56.803Z,10.10
2022-12-23T21:51:27.909Z,10.00
2022-12-23T21:53:58.715Z,10.00
2022-12-23T21:56:27.917Z,10.10
2022-12-23T21:58:56.546Z,10.20
2022-12-23T22:01:24.292Z,10.40
2022-12-23T22:03:51.657Z,10.50
2022-12-23T22:06:21.422Z,10.50
2022-12-23T22:08:49.319Z,10.50
2022-12-23T22:11:19.483Z,10.60
2022-12-23T22:13:46.324Z,10.60
2022-12-23T22:16:15.945Z,10.70
2022-12-23T22:18:43.208Z,10.70
2022-12-23T22:21:13.226Z,10.70
2022-12-23T22:23:40.469Z,10.70
2022-12-23T22:26:08.682Z,10.70
2022-12-23T22:28:37.100Z,10.60
2022-12-23T22:31:11.758Z,10.60
2022-12-23T22:33:38.608Z,10.60
2022-12-23T22:36:06.045Z,10.50
2022-12-23T22:38:32.877Z,10.50
2022-12-23T22:40:59.654Z,10.50
2022-12-23T22:43:26.434Z,10.60
2022-12-23T22:46:00.981Z,10.60
2022-12-23T22:48:29.559Z,10.70
2022-12-23T22:51:13.367Z,10.70
2022-12-23T22:53:40.168Z,10.70
2022-12-23T22:56:07.760Z,10.70
2022-12-23T22:58:35.009Z,10.70
2022-12-23T23:01:02.356Z,10.70
2022-12-23T23:03:29.285Z,10.60
2022-12-23T23:06:06.832Z,10.60
2022-12-23T23:08:34.680Z,10.60
2022-12-23T23:11:04.502Z,10.50
2022-12-23T23:13:34.325Z,10.60
2022-12-23T23:16:02.413Z,10.60
2022-12-23T23:18:30.293Z,10.50
2022-12-23T23:20:57.077Z,10.50
2022-12-23T23:23:23.968Z,10.50
2022-12-23T23:25:50.954Z,10.50
2022-12-23T23:31:16.726Z,10.40
2022-12-23T23:33:41.002Z,10.40
2022-12-23T23:36:08.388Z,10.30
2022-12-23T23:38:35.407Z,10.30
2022-12-23T23:41:02.757Z,10.30
2022-12-23T23:43:29.649Z,10.20
2022-12-23T23:45:56.627Z,10.20
2022-12-23T23:48:23.799Z,10.20
2022-12-23T23:50:50.643Z,10.20
2022-12-23T23:53:17.596Z,10.20
2022-12-23T23:55:44.349Z,10.20
2022-12-23T23:58:12.649Z,10.20
